createdAt,value
2022-11-29T00:00:47.403Z,93.50
2022-11-29T00:03:20.103Z,93.33
2022-11-29T00:05:47.363Z,91.90
2022-11-29T00:08:14.445Z,79.93
2022-11-29T00:10:41.184Z,74.37
2022-11-29T00:13:08.353Z,74.90
2022-11-29T00:15:36.886Z,90.10
2022-11-29T00:18:04.628Z,78.72
2022-11-29T00:20:31.725Z,82.30
2022-11-29T00:22:58.824Z,82.37
2022-11-29T00:25:26.737Z,76.63
2022-11-29T00:27:53.902Z,69.50
2022-11-29T00:30:21.163Z,75.63
2022-11-29T00:32:48.377Z,83.90
2022-11-29T00:35:15.296Z,76.80
2022-11-29T00:37:42.396Z,75.60
2022-11-29T00:40:09.479Z,74.07
2022-11-29T00:42:36.554Z,64.80
2022-11-29T00:45:03.649Z,61.07
2022-11-29T00:47:30.702Z,61.83
2022-11-29T00:49:57.473Z,73.30
2022-11-29T00:52:24.548Z,66.77
2022-11-29T00:54:51.291Z,75.60
2022-11-29T00:57:18.385Z,68.10
2022-11-29T00:59:45.130Z,79.07
2022-11-29T01:02:12.218Z,71.93
2022-11-29T01:04:39.089Z,63.00
2022-11-29T01:07:06.216Z,64.10
2022-11-29T01:09:32.988Z,65.87
2022-11-29T01:12:00.057Z,72.93
2022-11-29T01:14:26.867Z,66.73
2022-11-29T01:16:53.989Z,61.20
2022-11-29T01:19:20.762Z,75.60
2022-11-29T01:21:47.820Z,70.20
2022-11-29T01:24:14.592Z,60.17
2022-11-29T01:26:41.673Z,75.70
2022-11-29T01:29:12.912Z,64.93
2022-11-29T01:31:40.165Z,72.20
2022-11-29T01:34:07.348Z,65.87
2022-11-29T01:36:35.361Z,63.83
2022-11-29T01:39:04.187Z,62.23
2022-11-29T01:41:34.153Z,64.00
2022-11-29T01:44:13.054Z,65.20
2022-11-29T01:46:45.684Z,52.10
2022-11-29T01:49:18.812Z,62.33
2022-11-29T01:51:52.368Z,62.17
2022-11-29T01:54:20.681Z,58.73
2022-11-29T01:56:50.132Z,61.63
2022-11-29T01:59:21.968Z,62.93
2022-11-29T02:01:49.179Z,61.00
2022-11-29T02:04:17.616Z,69.67
2022-11-29T02:06:45.409Z,68.43
2022-11-29T02:09:21.071Z,53.87
2022-11-29T02:11:57.281Z,60.77
2022-11-29T02:14:37.008Z,47.50
2022-11-29T02:17:15.920Z,47.47
2022-11-29T02:20:00.737Z,51.92
2022-11-29T02:22:41.584Z,56.57
2022-11-29T02:25:17.042Z,53.00
2022-11-29T02:28:03.357Z,49.20
2022-11-29T02:31:02.662Z,45.43
2022-11-29T02:34:17.728Z,52.33
2022-11-29T02:36:58.764Z,41.40
2022-11-29T02:39:43.522Z,51.70
2022-11-29T02:42:19.569Z,47.87
2022-11-29T02:44:52.604Z,53.13
2022-11-29T02:47:36.717Z,51.37
2022-11-29T02:50:17.433Z,52.20
2022-11-29T02:53:35.078Z,43.77
2022-11-29T02:56:29.897Z,34.85
2022-11-29T02:59:18.355Z,42.70
2022-11-29T03:02:07.223Z,42.83
2022-11-29T03:04:43.837Z,39.38
2022-11-29T03:07:25.607Z,44.60
2022-11-29T03:10:10.784Z,38.87
2022-11-29T03:12:47.053Z,48.93
2022-11-29T03:15:28.562Z,40.93
2022-11-29T03:18:40.516Z,47.50
2022-11-29T03:21:09.916Z,33.07
2022-11-29T03:23:39.215Z,41.60
2022-11-29T03:29:09.564Z,37.87
2022-11-29T03:31:45.281Z,28.52
2022-11-29T03:34:18.247Z,42.70
2022-11-29T03:37:15.858Z,50.33
2022-11-29T03:39:53.033Z,44.67
2022-11-29T03:42:26.366Z,48.97
2022-11-29T03:45:05.885Z,41.47
2022-11-29T03:47:41.122Z,38.53
2022-11-29T03:50:14.700Z,48.20
2022-11-29T03:52:55.945Z,30.07
2022-11-29T03:55:48.079Z,53.77
2022-11-29T03:58:44.640Z,46.93
2022-11-29T04:01:33.570Z,42.30
2022-11-29T04:04:38.869Z,39.20
2022-11-29T04:07:38.675Z,49.17
2022-11-29T04:10:27.253Z,33.63
2022-11-29T04:13:26.510Z,36.00
2022-11-29T04:19:15.336Z,30.43
2022-11-29T04:22:04.618Z,36.93
2022-11-29T04:24:55.808Z,45.87
2022-11-29T04:27:53.172Z,43.67
2022-11-29T04:30:23.551Z,34.70
2022-11-29T04:33:23.103Z,37.23
2022-11-29T04:36:14.875Z,25.93
2022-11-29T04:38:47.988Z,32.87
2022-11-29T04:41:31.872Z,36.73
2022-11-29T04:44:17.647Z,40.77
2022-11-29T04:46:44.658Z,37.90
2022-11-29T04:49:31.685Z,42.63
2022-11-29T04:52:36.096Z,53.57
2022-11-29T04:55:14.720Z,39.30
2022-11-29T04:58:16.558Z,17.23
2022-11-29T05:01:09.292Z,47.50
2022-11-29T05:03:46.871Z,40.57
2022-11-29T05:06:16.524Z,64.47
2022-11-29T05:09:21.255Z,58.17
2022-11-29T05:12:26.473Z,23.17
2022-11-29T05:15:26.979Z,77.60
2022-11-29T05:18:21.433Z,41.47
2022-11-29T05:21:04.997Z,55.57
2022-11-29T05:23:53.188Z,61.97
2022-11-29T05:26:30.748Z,75.22
2022-11-29T05:29:11.098Z,31.07
2022-11-29T05:32:05.791Z,48.50
2022-11-29T05:34:56.941Z,57.33
2022-11-29T05:37:42.123Z,52.47
2022-11-29T05:40:44.653Z,24.87
2022-11-29T05:43:36.716Z,43.53
2022-11-29T05:46:24.861Z,44.70
2022-11-29T05:49:01.181Z,42.83
2022-11-29T05:51:40.285Z,39.17
2022-11-29T05:54:49.925Z,33.60
2022-11-29T05:57:36.970Z,40.33
2022-11-29T06:00:06.087Z,30.80
2022-11-29T06:02:40.068Z,21.75
2022-11-29T06:05:19.485Z,36.47
2022-11-29T06:08:19.483Z,38.07
2022-11-29T06:11:17.629Z,46.37
2022-11-29T06:14:17.426Z,45.60
2022-11-29T06:16:57.057Z,37.33
2022-11-29T06:19:46.045Z,36.70
2022-11-29T06:22:50.628Z,28.07
2022-11-29T06:25:47.188Z,39.80
2022-11-29T06:28:20.074Z,44.63
2022-11-29T06:31:08.631Z,36.63
2022-11-29T06:36:35.484Z,37.67
2022-11-29T06:39:02.849Z,29.40
2022-11-29T06:41:29.935Z,69.03
2022-11-29T06:43:57.346Z,69.27
2022-11-29T06:46:34.006Z,53.33
2022-11-29T06:49:09.732Z,62.13
2022-11-29T06:51:42.634Z,16.40
2022-11-29T06:54:32.313Z,38.80
2022-11-29T06:57:11.199Z,38.53
2022-11-29T07:00:25.702Z,36.70
2022-11-29T07:03:21.271Z,21.00
2022-11-29T07:05:48.620Z,26.27
2022-11-29T07:08:19.009Z,24.77
2022-11-29T07:10:50.165Z,12.57
2022-11-29T07:13:18.160Z,22.53
2022-11-29T07:15:59.156Z,27.75
2022-11-29T07:18:39.439Z,34.80
2022-11-29T07:21:48.788Z,29.37
2022-11-29T07:24:38.922Z,32.17
2022-11-29T07:27:32.296Z,30.03
2022-11-29T07:30:20.040Z,23.13
2022-11-29T07:33:32.278Z,23.17
2022-11-29T07:36:22.401Z,21.87
2022-11-29T07:39:15.560Z,23.83
2022-11-29T07:41:51.381Z,37.17
2022-11-29T07:44:27.460Z,33.47
2022-11-29T07:46:54.325Z,33.60
2022-11-29T07:49:21.389Z,24.93
2022-11-29T07:51:48.355Z,36.50
2022-11-29T07:54:17.881Z,39.60
2022-11-29T07:56:44.681Z,33.97
2022-11-29T07:59:12.987Z,30.07
2022-11-29T08:01:40.121Z,30.77
2022-11-29T08:04:08.205Z,28.17
2022-11-29T08:06:35.999Z,34.53
2022-11-29T08:09:04.599Z,31.83
2022-11-29T08:11:31.376Z,34.75
2022-11-29T08:14:03.785Z,32.73
2022-11-29T08:16:30.804Z,24.30
2022-11-29T08:18:58.233Z,31.17
2022-11-29T08:21:24.945Z,30.20
2022-11-29T08:23:52.637Z,26.30
2022-11-29T08:26:20.617Z,57.73
2022-11-29T08:28:52.380Z,31.30
2022-11-29T08:31:20.719Z,30.97
2022-11-29T08:33:48.016Z,32.38
2022-11-29T08:36:17.812Z,29.23
2022-11-29T08:38:45.190Z,39.60
2022-11-29T08:41:14.284Z,36.47
2022-11-29T08:43:42.180Z,34.73
2022-11-29T08:46:13.676Z,24.07
2022-11-29T08:48:43.861Z,29.90
2022-11-29T08:51:10.710Z,30.03
2022-11-29T08:53:43.608Z,26.37
2022-11-29T08:59:06.664Z,30.33
2022-11-29T09:01:33.492Z,21.60
2022-11-29T09:04:02.493Z,28.97
2022-11-29T09:06:45.596Z,33.67
2022-11-29T09:09:12.625Z,32.13
2022-11-29T09:11:39.364Z,36.10
2022-11-29T09:14:08.368Z,39.63
2022-11-29T09:16:38.408Z,38.33
2022-11-29T09:19:06.251Z,35.77
2022-11-29T09:21:36.619Z,33.70
2022-11-29T09:24:06.431Z,31.33
2022-11-29T09:26:36.068Z,32.37
2022-11-29T09:29:04.973Z,32.77
2022-11-29T09:31:32.826Z,36.42
2022-11-29T09:34:00.590Z,33.30
2022-11-29T09:36:29.920Z,30.33
2022-11-29T09:38:58.315Z,25.97
2022-11-29T09:41:59.707Z,24.80
2022-11-29T09:44:40.993Z,23.83
2022-11-29T09:47:10.472Z,35.03
2022-11-29T09:49:37.530Z,29.07
2022-11-29T09:52:32.216Z,26.10
2022-11-29T09:55:25.799Z,24.77
2022-11-29T09:57:55.204Z,25.87
2022-11-29T10:00:22.454Z,24.47
2022-11-29T10:03:18.377Z,30.27
2022-11-29T10:05:50.016Z,32.63
2022-11-29T10:08:29.379Z,33.13
2022-11-29T10:11:16.467Z,23.10
2022-11-29T10:13:49.273Z,25.13
2022-11-29T10:16:24.976Z,26.67
2022-11-29T10:19:01.816Z,23.57
2022-11-29T10:21:35.893Z,22.73
2022-11-29T10:24:13.491Z,26.40
2022-11-29T10:26:41.470Z,26.87
2022-11-29T10:29:14.628Z,25.00
2022-11-29T10:31:44.637Z,25.60
2022-11-29T10:34:17.604Z,27.63
2022-11-29T10:36:55.177Z,28.07
2022-11-29T10:39:35.773Z,27.43
2022-11-29T10:42:04.204Z,27.57
2022-11-29T10:44:33.302Z,33.33
2022-11-29T10:47:09.239Z,24.97
2022-11-29T10:49:38.053Z,13.07
2022-11-29T10:52:05.821Z,22.30
2022-11-29T10:54:38.425Z,25.47
2022-11-29T10:57:14.672Z,27.97
2022-11-29T10:59:41.489Z,29.60
2022-11-29T11:02:18.832Z,29.03
2022-11-29T11:04:48.007Z,27.53
2022-11-29T11:07:41.821Z,29.43
2022-11-29T11:10:26.697Z,29.87
2022-11-29T11:13:20.524Z,25.17
2022-11-29T11:15:47.505Z,24.93
2022-11-29T11:18:25.802Z,28.67
2022-11-29T11:21:02.132Z,23.90
2022-11-29T11:23:32.659Z,16.20
2022-11-29T11:26:03.550Z,26.73
2022-11-29T11:28:44.111Z,27.47
2022-11-29T11:31:12.854Z,31.83
2022-11-29T11:36:15.489Z,24.07
2022-11-29T11:38:57.789Z,26.37
2022-11-29T11:41:53.979Z,32.27
2022-11-29T11:44:53.802Z,27.43
2022-11-29T11:47:27.764Z,28.57
2022-11-29T11:50:08.056Z,30.10
2022-11-29T11:52:53.921Z,34.13
2022-11-29T11:55:20.908Z,9.03
2022-11-29T11:58:03.340Z,26.70
2022-11-29T12:01:10.135Z,29.63
2022-11-29T12:04:06.148Z,23.80
2022-11-29T12:06:52.609Z,26.90
2022-11-29T12:09:30.753Z,29.83
2022-11-29T12:12:21.847Z,28.45
2022-11-29T12:14:56.212Z,31.20
2022-11-29T12:17:53.212Z,27.73
2022-11-29T12:20:30.455Z,31.97
2022-11-29T12:23:24.104Z,29.07
2022-11-29T12:25:57.237Z,29.63
2022-11-29T12:28:32.345Z,32.67
2022-11-29T12:31:04.354Z,27.60
2022-11-29T12:33:48.272Z,28.20
2022-11-29T12:36:39.581Z,31.53
2022-11-29T12:39:23.176Z,17.17
2022-11-29T12:42:00.087Z,29.37
2022-11-29T12:44:56.696Z,31.90
2022-11-29T12:48:03.057Z,37.20
2022-11-29T12:50:40.389Z,28.50
2022-11-29T12:54:01.787Z,31.67
2022-11-29T12:56:28.819Z,33.90
2022-11-29T12:59:42.866Z,30.13
2022-11-29T13:02:40.687Z,34.53
2022-11-29T13:05:26.045Z,30.07
2022-11-29T13:08:14.816Z,27.73
2022-11-29T13:11:12.514Z,23.67
2022-11-29T13:13:46.657Z,31.50
2022-11-29T13:16:46.169Z,33.73
2022-11-29T13:19:32.705Z,35.90
2022-11-29T13:22:16.956Z,24.97
2022-11-29T13:24:47.060Z,31.83
2022-11-29T13:27:18.940Z,34.83
2022-11-29T13:29:47.468Z,35.70
2022-11-29T13:32:41.754Z,31.15
2022-11-29T13:35:22.199Z,27.30
2022-11-29T13:37:55.452Z,35.23
2022-11-29T13:40:25.717Z,30.53
2022-11-29T13:43:14.569Z,24.00
2022-11-29T13:45:49.367Z,31.07
2022-11-29T13:48:56.637Z,27.73
2022-11-29T13:51:26.004Z,29.80
2022-11-29T13:56:29.837Z,26.02
2022-11-29T13:58:58.879Z,33.87
2022-11-29T14:01:26.893Z,31.53
2022-11-29T14:04:03.533Z,38.03
2022-11-29T14:06:33.454Z,33.90
2022-11-29T14:09:26.247Z,32.70
2022-11-29T14:11:59.369Z,33.53
2022-11-29T14:14:48.348Z,34.13
2022-11-29T14:17:34.280Z,17.43
2022-11-29T14:20:39.211Z,27.87
2022-11-29T14:23:06.476Z,27.27
2022-11-29T14:25:52.975Z,32.73
2022-11-29T14:28:22.931Z,29.03
2022-11-29T14:30:49.929Z,34.23
2022-11-29T14:33:35.755Z,50.83
2022-11-29T14:36:21.536Z,22.97
2022-11-29T14:38:54.753Z,34.33
2022-11-29T14:41:24.204Z,29.77
2022-11-29T14:44:15.049Z,15.70
2022-11-29T14:46:42.004Z,33.10
2022-11-29T14:49:21.288Z,32.20
2022-11-29T14:54:34.588Z,24.57
2022-11-29T14:57:39.526Z,34.83
2022-11-29T15:00:13.938Z,14.87
2022-11-29T15:03:06.363Z,17.53
2022-11-29T15:05:38.104Z,25.97
2022-11-29T15:08:16.865Z,17.60
2022-11-29T15:13:23.326Z,21.43
2022-11-29T15:16:04.283Z,26.13
2022-11-29T15:18:52.606Z,37.57
2022-11-29T15:21:39.450Z,15.97
2022-11-29T15:24:14.620Z,39.13
2022-11-29T15:26:59.227Z,26.70
2022-11-29T15:29:27.742Z,21.43
2022-11-29T15:31:57.347Z,51.58
2022-11-29T15:34:32.974Z,35.73
2022-11-29T15:37:00.778Z,44.60
2022-11-29T15:39:37.088Z,65.30
2022-11-29T15:42:14.144Z,42.83
2022-11-29T15:44:48.931Z,51.33
2022-11-29T15:47:23.401Z,25.63
2022-11-29T15:49:51.953Z,35.00
2022-11-29T15:52:31.692Z,20.83
2022-11-29T15:55:05.552Z,28.73
2022-11-29T15:57:38.646Z,48.70
2022-11-29T16:00:15.766Z,35.80
2022-11-29T16:03:02.628Z,44.73
2022-11-29T16:05:33.886Z,34.33
2022-11-29T16:08:04.733Z,33.93
2022-11-29T16:10:43.694Z,32.03
2022-11-29T16:13:31.180Z,30.13
2022-11-29T16:16:07.665Z,29.20
2022-11-29T16:18:35.240Z,28.27
2022-11-29T16:21:05.737Z,33.30
2022-11-29T16:23:51.189Z,32.20
2022-11-29T16:26:32.648Z,29.67
2022-11-29T16:29:00.423Z,26.60
2022-11-29T16:31:38.230Z,21.77
2022-11-29T16:34:21.477Z,11.35
2022-11-29T16:37:14.553Z,25.67
2022-11-29T16:39:46.365Z,24.27
2022-11-29T16:42:13.090Z,28.03
2022-11-29T16:44:40.246Z,13.33
2022-11-29T16:47:24.591Z,24.87
2022-11-29T16:50:07.460Z,24.80
2022-11-29T16:52:34.465Z,30.03
2022-11-29T16:55:01.587Z,21.37
2022-11-29T16:57:29.350Z,28.43
2022-11-29T16:59:56.488Z,25.53
2022-11-29T17:02:23.634Z,19.80
2022-11-29T17:04:51.461Z,20.03
2022-11-29T17:07:25.325Z,27.67
2022-11-29T17:09:53.024Z,26.07
2022-11-29T17:12:19.817Z,24.83
2022-11-29T17:14:47.183Z,25.70
2022-11-29T17:17:15.460Z,22.17
2022-11-29T17:19:42.548Z,18.70
2022-11-29T17:22:09.413Z,33.33
2022-11-29T17:24:37.241Z,12.97
2022-11-29T17:27:04.825Z,29.03
2022-11-29T17:29:32.178Z,28.13
2022-11-29T17:31:59.117Z,29.63
2022-11-29T17:34:26.236Z,12.87
2022-11-29T17:36:53.129Z,20.57
2022-11-29T17:39:21.661Z,15.13
2022-11-29T17:41:48.821Z,28.95
2022-11-29T17:44:15.866Z,28.53
2022-11-29T17:46:42.657Z,29.17
2022-11-29T17:49:10.676Z,33.63
2022-11-29T17:51:54.266Z,18.57
2022-11-29T17:54:22.288Z,26.03
2022-11-29T17:56:49.837Z,27.97
2022-11-29T17:59:16.897Z,30.83
2022-11-29T18:01:43.873Z,35.17
2022-11-29T18:04:11.038Z,22.53
2022-11-29T18:06:40.563Z,48.43
2022-11-29T18:09:09.480Z,39.80
2022-11-29T18:11:46.918Z,26.55
2022-11-29T18:16:45.655Z,21.00
2022-11-29T18:19:15.684Z,32.03
2022-11-29T18:21:42.942Z,30.30
2022-11-29T18:24:10.527Z,36.10
2022-11-29T18:26:39.491Z,24.27
2022-11-29T18:29:07.619Z,26.53
2022-11-29T18:31:37.160Z,26.73
2022-11-29T18:34:07.171Z,26.90
2022-11-29T18:36:39.357Z,21.63
2022-11-29T18:39:09.504Z,28.50
2022-11-29T18:41:37.008Z,31.73
2022-11-29T18:44:06.059Z,31.37
2022-11-29T18:46:35.800Z,27.08
2022-11-29T18:49:05.933Z,23.70
2022-11-29T18:51:34.287Z,28.37
2022-11-29T18:54:02.069Z,27.60
2022-11-29T18:56:30.861Z,31.73
2022-11-29T18:59:00.483Z,25.73
2022-11-29T19:01:29.815Z,28.83
2022-11-29T19:04:01.132Z,31.63
2022-11-29T19:06:35.608Z,29.23
2022-11-29T19:09:11.488Z,25.73
2022-11-29T19:11:38.854Z,17.30
2022-11-29T19:14:11.308Z,29.60
2022-11-29T19:16:40.650Z,32.53
2022-11-29T19:19:07.994Z,25.90
2022-11-29T19:21:34.812Z,26.30
2022-11-29T19:24:05.538Z,26.70
2022-11-29T19:26:33.576Z,29.77
2022-11-29T19:29:01.793Z,21.30
2022-11-29T19:31:28.917Z,22.67
2022-11-29T19:33:57.228Z,21.67
2022-11-29T19:36:29.578Z,26.70
2022-11-29T19:38:57.691Z,20.17
2022-11-29T19:41:27.707Z,25.43
2022-11-29T19:43:59.213Z,27.17
2022-11-29T19:46:29.120Z,28.00
2022-11-29T19:48:57.567Z,28.37
2022-11-29T19:51:25.799Z,25.83
2022-11-29T19:53:59.180Z,22.80
2022-11-29T19:56:26.872Z,26.37
2022-11-29T19:58:54.360Z,17.73
2022-11-29T20:01:28.057Z,25.60
2022-11-29T20:03:55.908Z,34.03
2022-11-29T20:06:22.748Z,31.97
2022-11-29T20:08:49.833Z,32.57
2022-11-29T20:11:22.410Z,37.97
2022-11-29T20:14:08.293Z,35.50
2022-11-29T20:16:37.948Z,29.97
2022-11-29T20:19:10.192Z,20.47
2022-11-29T20:21:42.236Z,20.30
2022-11-29T20:24:09.893Z,28.73
2022-11-29T20:26:38.641Z,28.03
2022-11-29T20:31:34.625Z,29.83
2022-11-29T20:34:02.152Z,28.58
2022-11-29T20:37:11.925Z,23.70
2022-11-29T20:40:00.075Z,33.10
2022-11-29T20:42:29.663Z,27.37
2022-11-29T20:44:59.677Z,29.77
2022-11-29T20:47:27.655Z,26.43
2022-11-29T20:49:54.884Z,27.08
2022-11-29T20:52:38.870Z,28.07
2022-11-29T20:55:06.488Z,32.37
2022-11-29T20:57:33.214Z,22.70
2022-11-29T21:00:00.370Z,30.57
2022-11-29T21:02:27.103Z,31.10
2022-11-29T21:04:54.222Z,22.23
2022-11-29T21:07:21.066Z,26.83
2022-11-29T21:09:48.162Z,26.83
2022-11-29T21:12:15.610Z,28.90
2022-11-29T21:14:44.308Z,26.67
2022-11-29T21:17:11.623Z,24.70
2022-11-29T21:19:40.055Z,29.40
2022-11-29T21:22:16.169Z,27.50
2022-11-29T21:24:51.233Z,23.27
2022-11-29T21:27:32.402Z,31.53
2022-11-29T21:30:00.892Z,26.40
2022-11-29T21:32:27.933Z,21.95
2022-11-29T21:34:55.301Z,20.93
2022-11-29T21:37:26.333Z,20.07
2022-11-29T21:39:53.936Z,24.13
2022-11-29T21:42:20.781Z,23.10
2022-11-29T21:44:48.155Z,23.73
2022-11-29T21:47:15.325Z,25.13
2022-11-29T21:49:42.427Z,27.63
2022-11-29T21:52:09.231Z,22.10
2022-11-29T21:54:36.300Z,21.10
2022-11-29T21:57:03.126Z,27.47
2022-11-29T21:59:30.229Z,29.23
2022-11-29T22:01:57.156Z,16.67
2022-11-29T22:04:25.336Z,17.57
2022-11-29T22:06:52.165Z,20.20
2022-11-29T22:09:19.230Z,14.90
2022-11-29T22:11:46.085Z,17.90
2022-11-29T22:14:15.320Z,22.67
2022-11-29T22:19:14.181Z,10.70
2022-11-29T22:21:42.712Z,22.63
2022-11-29T22:24:11.127Z,13.18
2022-11-29T22:26:38.685Z,25.10
2022-11-29T22:29:06.513Z,11.23
2022-11-29T22:31:35.357Z,14.10
2022-11-29T22:34:02.625Z,11.40
2022-11-29T22:36:29.351Z,18.30
2022-11-29T22:38:56.401Z,19.67
2022-11-29T22:41:23.209Z,22.83
2022-11-29T22:43:50.437Z,22.80
2022-11-29T22:46:22.656Z,18.83
2022-11-29T22:48:52.826Z,23.17
2022-11-29T22:51:39.479Z,22.97
2022-11-29T22:54:09.277Z,20.93
2022-11-29T22:56:39.666Z,24.93
2022-11-29T22:59:06.810Z,21.80
2022-11-29T23:01:35.653Z,26.80
2022-11-29T23:04:06.197Z,22.67
2022-11-29T23:06:35.844Z,23.17
2022-11-29T23:09:15.207Z,20.97
2022-11-29T23:11:44.144Z,17.70
2022-11-29T23:14:12.073Z,18.37
2022-11-29T23:16:38.937Z,17.17
2022-11-29T23:19:06.190Z,21.70
2022-11-29T23:21:35.988Z,14.40
2022-11-29T23:24:03.214Z,20.53
2022-11-29T23:26:39.021Z,21.13
2022-11-29T23:29:08.737Z,22.73
2022-11-29T23:31:35.606Z,23.27
2022-11-29T23:34:03.162Z,24.20
2022-11-29T23:36:30.506Z,23.57
2022-11-29T23:38:57.644Z,23.37
2022-11-29T23:41:24.504Z,16.57
2022-11-29T23:43:51.700Z,19.70
2022-11-29T23:46:23.628Z,18.50
2022-11-29T23:48:51.024Z,21.33
2022-11-29T23:51:19.183Z,22.97
2022-11-29T23:53:50.433Z,22.42
2022-11-29T23:56:18.188Z,17.33
2022-11-29T23:58:45.339Z,15.93
